Main page
METAR-TAF:

METAR-TAF

Airports :

Lisbon, Portugal

Lisbon Airport

latitude: 38-46N, longitude: 009-08W, elevation: 114 m

Current weather observation

The report was made 38 minutes ago, at 23:30 UTC
Wind 5 kt from the West/Southwest, varying between Southwest and West/Northwest
Temperature 12°C
Humidity 94%
Pressure 1022 hPa
Visibility 10 km or more
Broken clouds at a height of 1400 ft

METAR: LPPT 262330Z 25005KT 220V300 9999 BKN014 12/11 Q1022

Time: 00:08 (00:08 UTC)

Forecast

The report was made 38 minutes ago, at 23:30 UTC
Forecast valid from 27 at 00 UTC to 28 at 06 UTC
Wind 8 kt from the West
Visibility 10 km or more
Scattered clouds at a height of 1500 ft
Scattered clouds at a height of 3000 ft
Temporary
from 27 at 17 UTC to 27 at 24 UTC
Visibility: 5000 m
Scattered clouds at a height of 1200 ft
Broken clouds at a height of 2500 ft
light rain

TAF: LPPT 262330Z 2700/2806 27008KT 9999 SCT015 SCT030 TEMPO 2717/2724 5000 -RA SCT012 BKN025

Weather observations and forecasts of more than 4000 airports (METAR and TAF reports).

The available stations are represented by yellow and red dots on the map.

Hover mouse over dot to see the name of the station.

Then click to see weather observations and forecasts.

To change the map : click on the green buttons with a black cross to zoom in, on the green button with a dash to zoom out, or on the green arrows for adjacent maps.


METAR-TAF: